createdAt,value
2022-08-29T00:00:17.858Z,89.09
2022-08-29T00:05:27.283Z,89.55
2022-08-29T00:10:41.428Z,90.95
2022-08-29T00:15:49.749Z,91.73
2022-08-29T00:20:51.847Z,92.79
2022-08-29T00:25:53.612Z,93.26
2022-08-29T00:30:57.751Z,94.56
2022-08-29T00:36:01.869Z,95.30
2022-08-29T00:41:10.729Z,95.79
2022-08-29T00:46:38.834Z,96.89
2022-08-29T00:51:41.572Z,96.88
2022-08-29T00:56:44.006Z,98.11
2022-08-29T01:01:48.986Z,98.61
2022-08-29T01:06:51.798Z,98.55
2022-08-29T01:12:17.704Z,99.04
2022-08-29T01:17:26.229Z,99.72
2022-08-29T01:23:10.270Z,99.37
2022-08-29T01:28:18.089Z,99.73
2022-08-29T01:33:19.883Z,100.00
2022-08-29T01:38:27.776Z,100.00
2022-08-29T01:43:29.724Z,100.00
2022-08-29T01:48:33.598Z,100.00
2022-08-29T01:53:35.743Z,100.00
2022-08-29T01:58:40.735Z,100.00
2022-08-29T02:03:47.237Z,100.00
2022-08-29T02:08:50.001Z,100.00
2022-08-29T02:13:59.354Z,100.00
2022-08-29T02:19:03.417Z,100.00
2022-08-29T02:24:23.908Z,100.00
2022-08-29T02:29:37.204Z,100.00
2022-08-29T02:34:39.909Z,100.00
2022-08-29T02:39:46.197Z,100.00
2022-08-29T02:44:47.922Z,100.00
2022-08-29T02:49:49.611Z,100.00
2022-08-29T02:54:55.362Z,100.00
2022-08-29T03:00:00.165Z,100.00
2022-08-29T03:05:05.175Z,100.00
2022-08-29T03:10:09.592Z,100.00
2022-08-29T03:15:17.668Z,100.00
2022-08-29T03:20:21.355Z,100.00
2022-08-29T03:25:27.772Z,100.00
2022-08-29T03:30:35.793Z,100.00
2022-08-29T03:35:40.040Z,100.00
2022-08-29T03:40:44.371Z,100.00
2022-08-29T03:45:50.494Z,100.00
2022-08-29T03:50:56.774Z,100.00
2022-08-29T03:55:58.459Z,100.00
2022-08-29T04:01:00.947Z,100.00
2022-08-29T04:06:10.404Z,100.00
2022-08-29T04:11:18.313Z,100.00
2022-08-29T04:16:25.326Z,100.00
2022-08-29T04:21:37.290Z,100.00
2022-08-29T04:26:41.144Z,100.00
2022-08-29T04:31:48.647Z,100.00
2022-08-29T04:36:53.452Z,100.00
2022-08-29T04:41:59.414Z,100.00
2022-08-29T04:47:03.751Z,100.00
2022-08-29T04:52:08.602Z,100.00
2022-08-29T04:57:10.354Z,100.00
2022-08-29T05:02:13.792Z,100.00
2022-08-29T05:07:18.365Z,100.00
2022-08-29T05:12:22.518Z,100.00
2022-08-29T05:17:29.389Z,100.00
2022-08-29T05:22:32.286Z,100.00
2022-08-29T05:27:34.210Z,100.00
2022-08-29T05:32:46.528Z,100.00
2022-08-29T05:37:51.452Z,100.00
2022-08-29T05:42:53.975Z,100.00
2022-08-29T05:48:03.025Z,100.00
2022-08-29T05:53:12.006Z,100.00
2022-08-29T05:58:16.869Z,100.00
2022-08-29T06:03:21.001Z,100.00
2022-08-29T06:08:22.765Z,100.00
2022-08-29T06:13:28.897Z,100.00
2022-08-29T06:18:37.474Z,100.00
2022-08-29T06:23:42.413Z,100.00
2022-08-29T06:28:46.014Z,100.00
2022-08-29T06:33:50.414Z,100.00
2022-08-29T06:39:02.678Z,100.00
2022-08-29T06:44:07.048Z,100.00
2022-08-29T06:49:11.973Z,100.00
2022-08-29T06:54:15.969Z,100.00
2022-08-29T06:59:19.346Z,100.00
2022-08-29T07:04:26.732Z,100.00
2022-08-29T07:09:31.079Z,100.00
2022-08-29T07:14:32.957Z,100.00
2022-08-29T07:19:34.676Z,100.00
2022-08-29T07:24:40.981Z,100.00
2022-08-29T07:29:50.583Z,100.00
2022-08-29T07:34:56.076Z,100.00
2022-08-29T07:40:00.493Z,100.00
2022-08-29T07:45:06.914Z,100.00
2022-08-29T07:50:13.766Z,100.00
2022-08-29T07:55:15.559Z,100.00
2022-08-29T08:00:20.499Z,100.00
2022-08-29T08:05:23.305Z,100.00
2022-08-29T08:10:28.040Z,100.00
2022-08-29T08:15:34.348Z,100.00
2022-08-29T08:20:39.205Z,100.00
2022-08-29T08:25:45.814Z,100.00
2022-08-29T08:30:48.572Z,100.00
2022-08-29T08:35:50.653Z,100.00
2022-08-29T08:41:10.785Z,100.00
2022-08-29T08:46:18.155Z,100.00
2022-08-29T08:51:29.623Z,100.00
2022-08-29T08:56:35.735Z,100.00
2022-08-29T09:01:46.932Z,100.00
2022-08-29T09:07:03.549Z,100.00
2022-08-29T09:12:13.864Z,100.00
2022-08-29T09:17:20.866Z,99.12
2022-08-29T09:22:32.693Z,98.00
2022-08-29T09:27:36.561Z,95.93
2022-08-29T09:33:09.069Z,95.06
2022-08-29T09:38:21.646Z,92.67
2022-08-29T09:43:29.288Z,92.53
2022-08-29T09:48:35.310Z,92.33
2022-08-29T09:53:40.778Z,91.14
2022-08-29T09:58:42.964Z,90.59
2022-08-29T10:04:03.486Z,89.39
2022-08-29T10:09:09.350Z,89.70
2022-08-29T10:14:17.370Z,89.63
2022-08-29T10:19:26.616Z,88.65
2022-08-29T10:25:06.933Z,87.63
2022-08-29T10:30:26.682Z,86.94
2022-08-29T10:35:37.944Z,86.46
2022-08-29T10:40:43.460Z,86.45
2022-08-29T10:46:08.620Z,85.02
2022-08-29T10:51:18.428Z,84.80
2022-08-29T10:56:27.495Z,85.02
2022-08-29T11:01:38.823Z,84.55
2022-08-29T11:06:48.323Z,85.06
2022-08-29T11:12:02.016Z,83.47
2022-08-29T11:17:08.305Z,81.51
2022-08-29T11:22:21.949Z,81.13
2022-08-29T11:27:37.708Z,79.08
2022-08-29T11:32:42.549Z,77.85
2022-08-29T11:37:49.856Z,77.43
2022-08-29T11:42:52.747Z,76.81
2022-08-29T11:48:17.564Z,75.67
2022-08-29T11:53:37.553Z,74.00
2022-08-29T11:58:40.432Z,74.13
2022-08-29T12:03:45.322Z,72.44
2022-08-29T12:09:13.902Z,72.28
2022-08-29T12:14:33.164Z,71.77
2022-08-29T12:19:48.328Z,71.31
2022-08-29T12:24:57.488Z,70.67
2022-08-29T12:29:59.783Z,70.27
2022-08-29T12:35:49.443Z,68.79
2022-08-29T12:40:59.661Z,68.15
2022-08-29T12:46:03.978Z,65.34
2022-08-29T12:51:09.682Z,65.70
2022-08-29T12:56:21.993Z,65.49
2022-08-29T13:01:38.194Z,64.22
2022-08-29T13:07:01.234Z,64.52
2022-08-29T13:12:21.325Z,61.84
2022-08-29T13:17:39.886Z,61.03
2022-08-29T13:22:44.613Z,59.63
2022-08-29T13:27:48.347Z,59.92
2022-08-29T13:32:52.254Z,57.44
2022-08-29T13:38:21.753Z,58.30
2022-08-29T13:43:44.955Z,56.26
2022-08-29T13:48:58.841Z,56.97
2022-08-29T13:54:02.954Z,55.90
2022-08-29T13:59:05.145Z,53.06
2022-08-29T14:04:34.147Z,52.72
2022-08-29T14:09:34.622Z,52.73
2022-08-29T14:14:37.982Z,51.52
2022-08-29T14:19:42.683Z,51.16
2022-08-29T14:24:53.299Z,49.88
2022-08-29T14:29:55.129Z,49.03
2022-08-29T14:34:59.235Z,47.71
2022-08-29T14:40:08.032Z,46.60
2022-08-29T14:45:12.987Z,45.58
2022-08-29T14:50:17.497Z,45.83
2022-08-29T14:55:21.267Z,45.41
2022-08-29T15:00:28.653Z,45.12
2022-08-29T15:05:34.720Z,46.59
2022-08-29T15:10:36.766Z,45.12
2022-08-29T15:16:35.922Z,42.18
2022-08-29T15:21:40.010Z,41.73
2022-08-29T15:26:46.937Z,41.57
2022-08-29T15:31:57.262Z,41.09
2022-08-29T15:37:06.235Z,39.69
2022-08-29T15:42:11.283Z,38.51
2022-08-29T15:47:13.287Z,38.90
2022-08-29T15:52:22.566Z,38.15
2022-08-29T15:57:32.372Z,38.31
2022-08-29T16:02:34.239Z,39.42
2022-08-29T16:07:38.510Z,38.35
2022-08-29T16:12:40.454Z,40.87
2022-08-29T16:17:44.486Z,43.83
2022-08-29T16:22:46.393Z,46.20
2022-08-29T16:27:53.872Z,48.88
2022-08-29T16:32:56.212Z,49.84
2022-08-29T16:38:02.433Z,51.41
2022-08-29T16:43:17.155Z,52.64
2022-08-29T16:48:19.295Z,53.22
2022-08-29T16:53:23.822Z,54.43
2022-08-29T16:58:44.319Z,55.64
2022-08-29T17:03:49.435Z,56.89
2022-08-29T17:08:53.681Z,57.58
2022-08-29T17:13:55.643Z,59.42
2022-08-29T17:18:57.763Z,59.44
2022-08-29T17:24:02.300Z,59.81
2022-08-29T17:29:06.651Z,60.77
2022-08-29T17:34:11.998Z,62.12
2022-08-29T17:39:15.822Z,62.24
2022-08-29T17:44:18.142Z,62.92
2022-08-29T17:49:21.011Z,62.83
2022-08-29T17:54:23.771Z,64.22
2022-08-29T17:59:29.927Z,63.88
2022-08-29T18:04:32.928Z,63.09
2022-08-29T18:09:34.781Z,62.18
2022-08-29T18:14:39.780Z,62.43
2022-08-29T18:19:42.590Z,64.50
2022-08-29T18:24:48.497Z,65.19
2022-08-29T18:29:55.763Z,65.92
2022-08-29T18:35:00.894Z,67.71
2022-08-29T18:40:04.952Z,67.35
2022-08-29T18:45:09.530Z,67.35
2022-08-29T18:50:29.908Z,68.07
2022-08-29T18:55:32.257Z,69.37
2022-08-29T19:00:34.981Z,69.59
2022-08-29T19:05:41.928Z,70.71
2022-08-29T19:10:53.774Z,70.70
2022-08-29T19:16:05.648Z,71.36
2022-08-29T19:21:07.554Z,71.53
2022-08-29T19:26:34.437Z,71.88
2022-08-29T19:31:36.225Z,72.64
2022-08-29T19:36:43.005Z,72.72
2022-08-29T19:41:50.202Z,72.32
2022-08-29T19:46:57.407Z,74.29
2022-08-29T19:51:59.338Z,74.73
2022-08-29T19:57:01.116Z,74.91
2022-08-29T20:02:02.948Z,75.09
2022-08-29T20:07:05.532Z,75.19
2022-08-29T20:12:08.752Z,75.74
2022-08-29T20:17:15.010Z,75.40
2022-08-29T20:22:20.466Z,74.88
2022-08-29T20:27:30.298Z,75.55
2022-08-29T20:32:36.747Z,75.67
2022-08-29T20:37:38.589Z,76.06
2022-08-29T20:42:41.321Z,75.87
2022-08-29T20:47:43.082Z,75.18
2022-08-29T20:52:45.044Z,76.46
2022-08-29T20:57:46.904Z,75.92
2022-08-29T21:03:09.954Z,76.42
2022-08-29T21:08:17.709Z,77.00
2022-08-29T21:13:22.524Z,77.18
2022-08-29T21:18:24.229Z,77.90
2022-08-29T21:23:34.269Z,77.97
2022-08-29T21:28:42.439Z,77.39
2022-08-29T21:33:52.718Z,77.87
2022-08-29T21:38:59.815Z,76.68
2022-08-29T21:44:06.101Z,77.43
2022-08-29T21:49:17.033Z,77.83
2022-08-29T21:54:21.769Z,77.19
2022-08-29T21:59:27.811Z,77.73
2022-08-29T22:04:32.833Z,76.70
2022-08-29T22:09:34.879Z,77.55
2022-08-29T22:14:54.982Z,77.26
2022-08-29T22:19:56.705Z,77.17
2022-08-29T22:25:04.927Z,76.98
2022-08-29T22:30:10.833Z,76.79
2022-08-29T22:35:15.886Z,76.31
2022-08-29T22:40:19.993Z,76.82
2022-08-29T22:45:27.143Z,76.50
2022-08-29T22:50:33.390Z,77.49
2022-08-29T22:55:39.239Z,76.05
2022-08-29T23:00:41.965Z,75.25
2022-08-29T23:05:44.507Z,75.81
2022-08-29T23:10:49.321Z,75.60
2022-08-29T23:15:53.584Z,75.60
2022-08-29T23:21:01.123Z,75.98
2022-08-29T23:26:08.493Z,76.43
2022-08-29T23:31:14.230Z,75.22
2022-08-29T23:36:25.040Z,75.67
2022-08-29T23:41:26.892Z,75.16
2022-08-29T23:46:33.402Z,76.27
2022-08-29T23:51:35.330Z,76.52
2022-08-29T23:56:37.836Z,77.01
